createdAt,value
2023-03-11T00:02:28.316Z,20.67
2023-03-11T00:07:31.096Z,20.67
2023-03-11T00:12:33.998Z,20.68
2023-03-11T00:17:38.090Z,20.68
2023-03-11T00:22:41.122Z,20.62
2023-03-11T00:27:44.216Z,20.65
2023-03-11T00:32:49.620Z,20.69
2023-03-11T00:37:54.508Z,20.65
2023-03-11T00:42:57.424Z,20.67
2023-03-11T00:48:01.565Z,20.67
2023-03-11T00:53:04.634Z,20.67
2023-03-11T00:58:07.733Z,20.63
2023-03-11T01:03:17.909Z,20.61
2023-03-11T01:08:21.853Z,20.62
2023-03-11T01:13:24.781Z,20.64
2023-03-11T01:18:29.033Z,20.60
2023-03-11T01:23:32.457Z,20.57
2023-03-11T01:28:35.228Z,20.46
2023-03-11T01:33:39.458Z,20.30
2023-03-11T01:38:42.208Z,20.18
2023-03-11T01:43:50.249Z,20.09
2023-03-11T01:49:00.215Z,19.98
2023-03-11T01:54:07.882Z,19.82
2023-03-11T01:59:11.957Z,19.72
2023-03-11T02:04:16.398Z,19.64
2023-03-11T02:09:20.184Z,19.57
2023-03-11T02:14:23.132Z,19.45
2023-03-11T02:19:33.873Z,19.41
2023-03-11T02:24:38.398Z,19.31
2023-03-11T02:29:42.746Z,19.23
2023-03-11T02:34:45.589Z,19.15
2023-03-11T02:39:50.991Z,19.10
2023-03-11T02:44:58.993Z,19.08
2023-03-11T02:50:04.430Z,19.03
2023-03-11T02:55:08.458Z,18.98
2023-03-11T03:00:15.903Z,18.96
2023-03-11T03:05:25.367Z,18.87
2023-03-11T03:10:28.493Z,18.86
2023-03-11T03:15:32.921Z,18.81
2023-03-11T03:20:36.790Z,18.81
2023-03-11T03:25:42.805Z,18.76
2023-03-11T03:30:47.735Z,18.73
2023-03-11T03:35:51.085Z,18.71
2023-03-11T03:41:03.869Z,18.69
2023-03-11T03:46:08.444Z,18.64
2023-03-11T03:51:16.236Z,18.63
2023-03-11T03:56:31.662Z,18.60
2023-03-11T04:01:36.652Z,18.60
2023-03-11T04:06:39.469Z,18.61
2023-03-11T04:11:43.611Z,18.61
2023-03-11T04:16:50.187Z,18.56
2023-03-11T04:21:53.135Z,18.54
2023-03-11T04:26:57.792Z,18.57
2023-03-11T04:32:02.232Z,18.55
2023-03-11T04:37:06.209Z,18.55
2023-03-11T04:42:13.941Z,18.54
2023-03-11T04:47:21.664Z,18.52
2023-03-11T04:52:24.591Z,18.51
2023-03-11T04:57:28.172Z,18.50
2023-03-11T05:02:34.108Z,18.50
2023-03-11T05:07:38.090Z,18.49
2023-03-11T05:12:41.685Z,18.48
2023-03-11T05:17:47.089Z,18.52
2023-03-11T05:22:50.165Z,18.48
2023-03-11T05:27:52.994Z,18.47
2023-03-11T05:32:57.583Z,18.47
2023-03-11T05:38:00.874Z,18.45
2023-03-11T05:43:05.663Z,18.46
2023-03-11T05:48:13.977Z,18.44
2023-03-11T05:53:16.942Z,18.43
2023-03-11T05:58:19.825Z,18.42
2023-03-11T06:03:25.308Z,18.40
2023-03-11T06:08:28.180Z,18.38
2023-03-11T06:13:31.146Z,18.38
2023-03-11T06:18:35.432Z,18.32
2023-03-11T06:23:38.523Z,18.36
2023-03-11T06:28:41.363Z,18.36
2023-03-11T06:33:45.765Z,18.37
2023-03-11T06:38:50.005Z,18.36
2023-03-11T06:43:53.158Z,18.35
2023-03-11T06:48:58.006Z,18.35
2023-03-11T06:54:00.897Z,18.36
2023-03-11T06:59:04.614Z,18.35
2023-03-11T07:04:11.560Z,18.32
2023-03-11T07:09:16.994Z,18.32
2023-03-11T07:14:22.128Z,18.33
2023-03-11T07:19:30.358Z,18.32
2023-03-11T07:24:33.086Z,18.32
2023-03-11T07:29:35.904Z,18.33
2023-03-11T07:34:40.282Z,18.31
2023-03-11T07:39:43.191Z,18.32
2023-03-11T07:44:46.026Z,18.32
2023-03-11T07:49:50.280Z,18.29
2023-03-11T07:54:53.199Z,18.28
2023-03-11T07:59:55.977Z,18.28
2023-03-11T08:05:00.119Z,18.32
2023-03-11T08:10:04.257Z,18.47
2023-03-11T08:15:08.297Z,18.41
2023-03-11T08:20:13.689Z,16.93
2023-03-11T08:25:16.594Z,17.04
2023-03-11T08:30:19.928Z,17.94
2023-03-11T08:35:24.262Z,18.39
2023-03-11T08:40:27.429Z,18.75
2023-03-11T08:45:30.234Z,18.96
2023-03-11T08:50:44.178Z,19.11
2023-03-11T08:55:54.332Z,19.31
2023-03-11T09:00:57.221Z,19.45
2023-03-11T09:06:01.784Z,19.54
2023-03-11T09:11:05.515Z,19.61
2023-03-11T09:16:08.714Z,19.70
2023-03-11T09:21:13.010Z,19.79
2023-03-11T09:26:15.828Z,19.84
2023-03-11T09:31:19.005Z,19.90
2023-03-11T09:36:23.685Z,20.05
2023-03-11T09:41:33.177Z,20.14
2023-03-11T09:46:47.248Z,20.24
2023-03-11T09:51:54.064Z,20.31
2023-03-11T09:56:56.974Z,20.31
2023-03-11T10:01:59.809Z,20.31
2023-03-11T10:07:04.160Z,20.34
2023-03-11T10:12:13.717Z,20.39
2023-03-11T10:17:21.850Z,20.42
2023-03-11T10:22:28.042Z,20.44
2023-03-11T10:27:32.756Z,19.37
2023-03-11T10:32:38.956Z,20.22
2023-03-11T10:37:49.716Z,20.34
2023-03-11T10:42:53.053Z,20.39
2023-03-11T10:47:57.754Z,20.45
2023-03-11T10:53:10.265Z,19.66
2023-03-11T10:58:14.088Z,20.03
2023-03-11T11:03:21.403Z,20.21
2023-03-11T11:08:25.544Z,20.29
2023-03-11T11:13:30.159Z,20.41
2023-03-11T11:18:34.402Z,20.48
2023-03-11T11:23:42.739Z,20.50
2023-03-11T11:28:45.590Z,20.56
2023-03-11T11:33:50.904Z,20.54
2023-03-11T11:38:56.156Z,20.60
2023-03-11T11:43:59.901Z,20.62
2023-03-11T11:49:09.528Z,20.67
2023-03-11T11:54:18.100Z,20.66
2023-03-11T11:59:23.020Z,20.69
2023-03-11T12:04:45.131Z,20.75
2023-03-11T12:09:54.844Z,20.83
2023-03-11T12:15:00.705Z,20.85
2023-03-11T12:20:04.966Z,20.86
2023-03-11T12:25:22.121Z,20.86
2023-03-11T12:30:27.669Z,20.86
2023-03-11T12:35:31.409Z,20.87
2023-03-11T12:40:48.315Z,20.86
2023-03-11T12:45:51.652Z,20.81
2023-03-11T12:50:55.105Z,20.85
2023-03-11T12:56:03.637Z,20.80
2023-03-11T13:01:35.554Z,20.85
2023-03-11T13:06:46.136Z,20.83
2023-03-11T13:11:51.247Z,20.81
2023-03-11T13:16:54.028Z,21.01
2023-03-11T13:21:58.986Z,21.00
2023-03-11T13:27:05.314Z,21.00
2023-03-11T13:32:18.766Z,20.98
2023-03-11T13:37:26.214Z,20.94
2023-03-11T13:42:31.439Z,20.80
2023-03-11T13:47:34.232Z,20.89
2023-03-11T13:52:38.629Z,20.88
2023-03-11T13:57:42.918Z,20.91
2023-03-11T14:02:50.983Z,20.95
2023-03-11T14:07:53.863Z,20.96
2023-03-11T14:13:08.050Z,21.19
2023-03-11T14:18:35.724Z,21.21
2023-03-11T14:23:43.429Z,21.36
2023-03-11T14:28:48.802Z,21.34
2023-03-11T14:34:04.005Z,21.35
2023-03-11T14:39:06.834Z,21.36
2023-03-11T14:44:11.202Z,21.39
2023-03-11T14:49:15.001Z,21.30
2023-03-11T14:54:18.831Z,21.21
2023-03-11T14:59:26.660Z,21.22
2023-03-11T15:04:32.648Z,21.24
2023-03-11T15:09:35.460Z,21.34
2023-03-11T15:14:50.148Z,21.37
2023-03-11T15:19:52.912Z,21.31
2023-03-11T15:24:56.428Z,21.42
2023-03-11T15:30:00.670Z,21.64
2023-03-11T15:35:04.547Z,21.68
2023-03-11T15:40:12.895Z,22.10
2023-03-11T15:45:18.037Z,22.44
2023-03-11T15:50:27.287Z,22.29
2023-03-11T15:55:33.127Z,22.24
2023-03-11T16:00:37.567Z,22.24
2023-03-11T16:05:40.636Z,22.20
2023-03-11T16:10:43.733Z,22.21
2023-03-11T16:15:48.002Z,22.11
2023-03-11T16:20:51.452Z,22.05
2023-03-11T16:25:54.701Z,21.91
2023-03-11T16:30:58.994Z,21.82
2023-03-11T16:36:01.958Z,21.81
2023-03-11T16:41:05.140Z,21.74
2023-03-11T16:46:09.514Z,21.59
2023-03-11T16:51:12.351Z,21.49
2023-03-11T16:56:15.224Z,21.44
2023-03-11T17:01:21.791Z,21.41
2023-03-11T17:06:24.651Z,21.33
2023-03-11T17:11:29.470Z,21.18
2023-03-11T17:16:36.395Z,21.01
2023-03-11T17:21:39.186Z,20.86
2023-03-11T17:26:41.931Z,20.77
2023-03-11T17:31:46.123Z,20.92
2023-03-11T17:36:48.902Z,20.95
2023-03-11T17:41:52.025Z,21.02
2023-03-11T17:46:56.148Z,21.03
2023-03-11T17:51:59.100Z,21.00
2023-03-11T17:57:02.074Z,21.01
2023-03-11T18:02:06.617Z,21.03
2023-03-11T18:07:09.466Z,21.07
2023-03-11T18:12:12.367Z,21.10
2023-03-11T18:17:18.357Z,21.10
2023-03-11T18:22:21.391Z,21.14
2023-03-11T18:27:24.511Z,21.14
2023-03-11T18:32:28.726Z,21.13
2023-03-11T18:37:33.273Z,21.14
2023-03-11T18:42:36.328Z,21.15
2023-03-11T18:47:40.838Z,21.16
2023-03-11T18:52:43.894Z,21.15
2023-03-11T18:57:47.416Z,21.14
2023-03-11T19:02:54.836Z,21.15
2023-03-11T19:07:57.623Z,21.16
2023-03-11T19:13:00.465Z,21.16
2023-03-11T19:18:07.320Z,21.13
2023-03-11T19:23:11.483Z,21.14
2023-03-11T19:28:14.307Z,21.14
2023-03-11T19:33:18.457Z,21.15
2023-03-11T19:38:21.284Z,21.17
2023-03-11T19:43:24.766Z,21.16
2023-03-11T19:48:29.027Z,21.18
2023-03-11T19:53:31.829Z,21.20
2023-03-11T19:58:34.597Z,21.18
2023-03-11T20:03:39.137Z,21.21
2023-03-11T20:08:41.915Z,21.23
2023-03-11T20:13:44.814Z,21.24
2023-03-11T20:18:50.999Z,21.24
2023-03-11T20:23:54.781Z,21.24
2023-03-11T20:28:57.775Z,21.26
2023-03-11T20:34:02.069Z,21.25
2023-03-11T20:39:05.850Z,21.28
2023-03-11T20:44:10.109Z,21.27
2023-03-11T20:49:14.445Z,21.29
2023-03-11T20:54:17.648Z,21.29
2023-03-11T20:59:20.697Z,21.31
2023-03-11T21:04:25.409Z,21.30
2023-03-11T21:09:28.342Z,21.31
2023-03-11T21:14:31.448Z,21.32
2023-03-11T21:19:35.608Z,21.30
2023-03-11T21:24:38.467Z,21.30
2023-03-11T21:29:43.823Z,21.28
2023-03-11T21:34:48.047Z,21.32
2023-03-11T21:39:51.121Z,21.35
2023-03-11T21:44:54.009Z,21.32
2023-03-11T21:49:58.225Z,21.34
2023-03-11T21:55:01.160Z,21.30
2023-03-11T22:00:06.853Z,21.32
2023-03-11T22:05:12.088Z,21.31
2023-03-11T22:10:15.744Z,21.33
2023-03-11T22:15:18.834Z,21.34
2023-03-11T22:20:23.189Z,21.32
2023-03-11T22:25:26.211Z,21.32
2023-03-11T22:30:29.020Z,21.33
2023-03-11T22:35:33.248Z,21.32
2023-03-11T22:40:36.113Z,21.32
2023-03-11T22:45:38.917Z,21.34
2023-03-11T22:50:44.266Z,21.33
2023-03-11T22:55:47.082Z,21.33
2023-03-11T23:00:49.963Z,21.32
2023-03-11T23:05:54.179Z,21.29
2023-03-11T23:10:56.996Z,21.31
2023-03-11T23:16:04.464Z,21.30
2023-03-11T23:21:16.574Z,21.32
2023-03-11T23:26:19.570Z,21.31
2023-03-11T23:31:23.093Z,21.32
2023-03-11T23:36:30.265Z,21.30
2023-03-11T23:41:33.393Z,21.31
2023-03-11T23:46:36.184Z,21.31
2023-03-11T23:51:40.354Z,21.32
2023-03-11T23:56:44.586Z,21.31
